Time;durP1;ratioP1;P1;durP2;ratioP2;P2;SDS_P1;SDS_P2;PMS_P1;PMS_P2;Temp;Humidity;BMP_temperature;BMP_pressure;BME280_temperature;BME280_humidity;BME280_pressure;Samples;Min_cycle;Max_cycle;Signal;HPM_P1;HPM_P2
2021/12/24 00:01:09;;;;;;;69.30;32.55;;;;;;;-1.47;100.00;99779.34;5154261;27;20042;-72
2021/12/24 00:03:39;;;;;;;66.72;33.10;;;;;;;-1.38;100.00;99775.69;5154295;27;20043;-72
2021/12/24 00:06:09;;;;;;;65.22;31.90;;;;;;;-1.38;100.00;99773.06;5154219;27;20039;-75
2021/12/24 00:08:38;;;;;;;63.47;32.45;;;;;;;-1.41;100.00;99794.06;5154421;27;20042;-75
2021/12/24 00:11:07;;;;;;;64.38;32.28;;;;;;;-1.35;100.00;99791.34;5155026;27;20073;-76
2021/12/24 00:13:41;;;;;;;66.50;33.38;;;;;;;-1.30;100.00;99783.41;5158465;27;20087;-75
2021/12/24 00:16:19;;;;;;;58.60;31.35;;;;;;;-1.29;100.00;99772.03;5157953;27;20042;-75
2021/12/24 00:18:53;;;;;;;60.72;31.52;;;;;;;-1.23;100.00;99759.69;5158519;27;20043;-75
2021/12/24 00:35:32;;;;;;;65.70;32.67;;;;;;;-1.28;100.00;99713.56;5158203;27;20456;-77
2021/12/24 00:38:03;;;;;;;66.95;34.25;;;;;;;-1.26;100.00;99706.53;5158586;27;20464;-76
2021/12/24 00:40:35;;;;;;;66.75;33.97;;;;;;;-1.26;100.00;99710.03;5158796;27;20053;-75
2021/12/24 00:43:04;;;;;;;63.20;32.75;;;;;;;-1.21;100.00;99728.25;5158262;27;20043;-75
2021/12/24 00:45:35;;;;;;;66.53;33.85;;;;;;;-1.20;100.00;99709.91;5157923;27;20479;-75
2021/12/24 00:48:05;;;;;;;70.80;34.58;;;;;;;-1.24;100.00;99696.94;5157932;27;20038;-72
2021/12/24 00:50:49;;;;;;;68.13;34.30;;;;;;;-1.18;100.00;99710.72;5157736;27;20053;-73
2021/12/24 00:56:07;;;;;;;61.67;32.20;;;;;;;-1.20;100.00;99711.66;5157735;27;20061;-73
2021/12/24 00:58:37;;;;;;;66.53;33.97;;;;;;;-1.19;100.00;99693.31;5157399;27;20039;-73
2021/12/24 01:01:06;;;;;;;69.82;35.40;;;;;;;-1.16;100.00;99685.41;5157553;27;20118;-73
2021/12/24 01:03:35;;;;;;;66.55;34.22;;;;;;;-1.06;100.00;99685.19;5156253;27;20047;-72
2021/12/24 01:06:07;;;;;;;64.32;33.63;;;;;;;-1.09;100.00;99669.56;5157173;27;20053;-72
2021/12/24 01:08:35;;;;;;;65.07;34.05;;;;;;;-1.03;100.00;99658.97;5157429;27;20415;-72
2021/12/24 01:11:07;;;;;;;65.38;33.97;;;;;;;-0.96;100.00;99660.53;5156048;27;20043;-72
2021/12/24 01:13:35;;;;;;;66.22;34.08;;;;;;;-0.94;100.00;99625.56;5157509;27;20038;-72
2021/12/24 01:16:12;;;;;;;68.93;34.17;;;;;;;-0.71;100.00;99634.63;5156993;27;20074;-72
2021/12/24 01:18:50;;;;;;;68.53;33.53;;;;;;;-0.68;100.00;99624.06;5157313;27;20060;-72
2021/12/24 01:21:33;;;;;;;64.90;33.75;;;;;;;-0.50;100.00;99607.03;5156963;27;20053;-72
2021/12/24 01:24:04;;;;;;;68.20;34.30;;;;;;;-0.61;100.00;99589.84;5157361;27;20057;-72
2021/12/24 01:26:39;;;;;;;71.33;34.63;;;;;;;-0.78;100.00;99564.97;5157226;27;20046;-71
2021/12/24 01:29:36;;;;;;;71.55;35.35;;;;;;;-0.77;100.00;99571.91;5157001;27;20468;-72
2021/12/24 01:38:08;;;;;;;68.15;35.50;;;;;;;-0.94;100.00;99569.72;5156926;27;20042;-72
2021/12/24 01:40:51;;;;;;;68.20;35.88;;;;;;;-1.05;100.00;99561.28;5156864;27;20376;-73
2021/12/24 01:43:19;;;;;;;71.43;35.60;;;;;;;-1.06;100.00;99570.91;5156590;27;20039;-72
2021/12/24 01:45:49;;;;;;;74.53;35.38;;;;;;;-1.06;100.00;99575.25;5156670;27;20038;-71
2021/12/24 01:48:18;;;;;;;69.50;35.90;;;;;;;-1.12;100.00;99580.63;5156116;27;20038;-72
2021/12/24 01:50:48;;;;;;;71.85;35.40;;;;;;;-1.13;100.00;99605.09;5156621;27;20121;-70
2021/12/24 01:53:20;;;;;;;71.65;36.25;;;;;;;-1.11;100.00;99582.34;5156285;27;20049;-72
2021/12/24 01:55:50;;;;;;;70.15;35.65;;;;;;;-1.10;100.00;99578.84;5156609;27;20087;-72
2021/12/24 01:58:19;;;;;;;72.53;36.05;;;;;;;-1.11;100.00;99533.50;5156070;27;20458;-72
2021/12/24 02:00:50;;;;;;;71.63;37.17;;;;;;;-1.09;100.00;99554.38;5156374;27;20137;-72
2021/12/24 02:03:19;;;;;;;69.53;36.28;;;;;;;-1.07;100.00;99573.53;5156136;27;20039;-72
2021/12/24 02:05:49;;;;;;;72.90;35.92;;;;;;;-1.07;100.00;99566.53;5154874;27;20137;-71
2021/12/24 02:08:20;;;;;;;70.07;36.42;;;;;;;-1.06;100.00;99549.06;5155973;27;20046;-71
2021/12/24 02:10:51;;;;;;;70.75;35.05;;;;;;;-0.98;100.00;99547.13;5155798;27;20043;-70
2021/12/24 02:13:19;;;;;;;70.20;35.88;;;;;;;-0.96;100.00;99524.41;5155663;27;20072;-71
2021/12/24 02:16:03;;;;;;;70.05;35.55;;;;;;;-1.00;100.00;99520.13;5156183;27;20537;-71
2021/12/24 02:28:14;;;;;;;66.28;35.08;;;;;;;-0.96;100.00;99540.13;5155503;27;20061;-72
2021/12/24 02:29:55;;;;;;;71.47;36.38;;;;;;;-0.99;100.00;99504.38;5156745;27;20095;-70
2021/12/24 02:32:24;;;;;;;70.05;36.45;;;;;;;-0.96;100.00;99530.50;5157642;27;20038;-71
2021/12/24 02:34:52;;;;;;;67.18;35.13;;;;;;;-1.00;100.00;99512.28;5154955;27;20034;-71
2021/12/24 02:37:22;;;;;;;72.57;36.67;;;;;;;-1.05;100.00;99495.84;5155371;27;20096;-72
2021/12/24 02:39:50;;;;;;;68.05;35.78;;;;;;;-0.92;100.00;99489.38;5155650;27;20466;-71
2021/12/24 02:42:21;;;;;;;68.40;34.88;;;;;;;-0.89;100.00;99490.16;5155295;27;20062;-72
2021/12/24 02:44:51;;;;;;;75.30;37.70;;;;;;;-0.90;100.00;99508.53;5155714;27;20095;-71
2021/12/24 02:47:41;;;;;;;71.43;36.28;;;;;;;-0.93;100.00;99482.44;5155304;27;20417;-72
2021/12/24 02:55:43;;;;;;;71.25;36.45;;;;;;;-1.01;100.00;99458.22;5155746;27;20063;-72
2021/12/24 02:58:12;;;;;;;72.65;37.72;;;;;;;-1.07;100.00;99463.59;5155216;27;20095;-72
2021/12/24 03:00:40;;;;;;;73.50;36.22;;;;;;;-1.02;100.00;99464.34;5155204;27;20039;-72
2021/12/24 03:03:08;;;;;;;69.88;35.60;;;;;;;-1.03;100.00;99454.78;5155282;27;20429;-74
2021/12/24 03:05:37;;;;;;;68.90;35.92;;;;;;;-0.97;100.00;99459.84;5154889;27;20047;-74
2021/12/24 03:08:07;;;;;;;67.10;35.60;;;;;;;-0.99;100.00;99466.88;5154913;27;20043;-74
2021/12/24 03:10:36;;;;;;;68.43;36.50;;;;;;;-1.01;100.00;99473.91;5154486;27;20821;-74
2021/12/24 03:13:05;;;;;;;69.25;37.30;;;;;;;-0.99;100.00;99477.34;5154866;27;20046;-74
2021/12/24 03:15:34;;;;;;;71.47;36.80;;;;;;;-0.96;100.00;99498.22;5154695;27;20042;-74
2021/12/24 03:18:02;;;;;;;72.68;38.00;;;;;;;-0.86;100.00;99510.19;5155083;27;20045;-74
2021/12/24 03:20:34;;;;;;;69.22;36.72;;;;;;;-0.87;100.00;99497.97;5154713;27;20073;-74
2021/12/24 03:23:10;;;;;;;70.70;36.42;;;;;;;-0.91;100.00;99476.25;5155092;27;20042;-74
2021/12/24 03:25:39;;;;;;;75.45;37.47;;;;;;;-0.92;100.00;99489.38;5154629;27;20046;-74
2021/12/24 03:28:08;;;;;;;76.32;37.72;;;;;;;-0.96;100.00;99499.09;5154563;27;20050;-74
2021/12/24 03:30:36;;;;;;;71.18;36.40;;;;;;;-0.87;100.00;99493.63;5154460;27;20049;-74
2021/12/24 03:33:04;;;;;;;73.57;37.03;;;;;;;-0.87;100.00;99466.56;5154789;27;20076;-74
2021/12/24 03:35:33;;;;;;;71.70;36.92;;;;;;;-0.89;100.00;99466.59;5153393;27;20384;-74
2021/12/24 03:38:01;;;;;;;76.47;35.90;;;;;;;-0.97;100.00;99452.84;5154845;27;20038;-74
2021/12/24 03:40:30;;;;;;;75.45;38.03;;;;;;;-0.97;100.00;99444.13;5154524;27;20085;-74
2021/12/24 03:43:00;;;;;;;71.38;37.50;;;;;;;-0.95;100.00;99443.22;5154758;27;20038;-74
2021/12/24 03:45:34;;;;;;;74.90;36.97;;;;;;;-0.82;100.00;99438.50;5155765;27;20050;-74
2021/12/24 03:48:14;;;;;;;72.97;37.22;;;;;;;-0.82;100.00;99446.34;5159124;27;20043;-74
2021/12/24 03:50:50;;;;;;;73.30;37.88;;;;;;;-0.87;100.00;99428.16;5158634;27;20046;-74
2021/12/24 03:56:04;;;;;;;71.25;36.72;;;;;;;-0.85;100.00;99430.75;5159022;27;20066;-73
2021/12/24 03:58:33;;;;;;;73.90;38.95;;;;;;;-0.81;100.00;99419.25;5158191;27;20052;-74
2021/12/24 04:01:02;;;;;;;69.50;37.58;;;;;;;-0.82;100.00;99408.84;5158789;27;20079;-73
2021/12/24 04:03:31;;;;;;;76.03;38.80;;;;;;;-0.88;100.00;99396.75;5158114;27;20077;-74
2021/12/24 04:06:00;;;;;;;75.55;38.20;;;;;;;-0.81;100.00;99397.47;5158919;27;20441;-73
2021/12/24 04:08:28;;;;;;;75.97;37.28;;;;;;;-0.80;100.00;99383.47;5158294;27;20509;-73
2021/12/24 04:10:56;;;;;;;70.95;36.25;;;;;;;-0.74;100.00;99383.31;5156768;27;20050;-72
2021/12/24 04:13:24;;;;;;;74.55;37.15;;;;;;;-0.74;100.00;99372.81;5158292;27;20046;-73
2021/12/24 04:15:55;;;;;;;72.78;37.95;;;;;;;-0.76;100.00;99359.78;5158210;27;20042;-73
2021/12/24 04:18:37;;;;;;;80.07;38.97;;;;;;;-0.78;100.00;99351.09;5158085;27;20042;-73
2021/12/24 04:26:39;;;;;;;71.20;36.60;;;;;;;-0.85;100.00;99357.44;5157863;27;20107;-72
2021/12/24 04:29:08;;;;;;;72.82;36.28;;;;;;;-0.71;100.00;99378.81;5158262;27;20083;-72
2021/12/24 04:31:43;;;;;;;70.85;36.45;;;;;;;-0.79;100.00;99375.56;5157774;27;20047;-73
2021/12/24 04:34:13;;;;;;;72.97;36.30;;;;;;;-0.92;100.00;99368.97;5158225;27;20433;-73
2021/12/24 04:37:07;;;;;;;75.18;37.50;;;;;;;-0.87;100.00;99362.72;5158035;27;20051;-72
2021/12/24 04:39:45;;;;;;;76.43;36.72;;;;;;;-0.81;100.00;99366.91;5157536;27;20051;-72
2021/12/24 05:01:12;;;;;;;77.50;37.53;;;;;;;-0.71;100.00;99352.63;5157810;27;20344;-71
2021/12/24 05:02:02;;;;;;;70.88;36.15;;;;;;;-0.75;100.00;99355.41;5157471;27;20064;-74
2021/12/24 05:04:35;;;;;;;70.82;37.38;;;;;;;-0.76;100.00;99349.31;5157126;27;20039;-70
2021/12/24 05:07:12;;;;;;;79.35;38.30;;;;;;;-0.85;100.00;99328.63;5157373;27;20061;-71
2021/12/24 05:09:41;;;;;;;73.88;38.33;;;;;;;-0.85;100.00;99338.25;5156958;27;20035;-69
2021/12/24 05:12:11;;;;;;;77.95;38.15;;;;;;;-0.78;100.00;99343.22;5156987;27;20039;-72
2021/12/24 05:14:39;;;;;;;71.18;36.88;;;;;;;-0.74;100.00;99338.78;5157006;27;20043;-72
2021/12/24 05:17:23;;;;;;;72.57;37.13;;;;;;;-0.85;100.00;99333.84;5157215;27;20138;-72
2021/12/24 05:22:39;;;;;;;72.68;37.58;;;;;;;-0.84;100.00;99340.81;5156696;27;20042;-71
2021/12/24 05:25:07;;;;;;;75.45;38.25;;;;;;;-0.95;100.00;99342.88;5157271;27;20042;-77
2021/12/24 05:27:37;;;;;;;74.95;38.60;;;;;;;-0.94;100.00;99336.72;5155686;27;20074;-75
2021/12/24 05:30:06;;;;;;;77.30;38.38;;;;;;;-1.02;100.00;99325.63;5156781;27;20038;-77
2021/12/24 05:32:36;;;;;;;74.72;37.45;;;;;;;-1.06;100.00;99318.72;5156326;27;20042;-77
2021/12/24 05:35:07;;;;;;;79.40;39.85;;;;;;;-1.11;100.00;99311.03;5156900;27;20039;-72
2021/12/24 05:37:35;;;;;;;79.00;39.10;;;;;;;-0.96;100.00;99325.47;5156626;27;20049;-72
2021/12/24 05:40:04;;;;;;;74.38;38.65;;;;;;;-0.95;100.00;99324.56;5156848;27;20042;-74
2021/12/24 05:42:33;;;;;;;77.97;39.92;;;;;;;-0.89;100.00;99333.06;5156453;27;20075;-71
2021/12/24 05:45:05;;;;;;;80.97;39.58;;;;;;;-0.91;100.00;99328.78;5156693;27;20046;-73
2021/12/24 05:47:33;;;;;;;71.13;37.70;;;;;;;-0.80;100.00;99329.34;5156473;27;20118;-73
2021/12/24 05:50:01;;;;;;;80.15;38.67;;;;;;;-0.80;100.00;99344.19;5156435;27;20121;-72
2021/12/24 05:52:31;;;;;;;76.28;38.65;;;;;;;-0.79;100.00;99343.28;5156232;27;20118;-72
2021/12/24 05:55:00;;;;;;;82.80;40.25;;;;;;;-0.90;100.00;99348.81;5156289;27;20042;-71
2021/12/24 05:57:28;;;;;;;75.75;38.95;;;;;;;-0.95;100.00;99361.19;5156084;27;20043;-75
2021/12/24 05:59:57;;;;;;;77.68;39.67;;;;;;;-0.92;100.00;99358.50;5155071;27;20051;-71
2021/12/24 06:02:25;;;;;;;81.50;40.53;;;;;;;-0.87;100.00;99364.44;5156198;27;20484;-71
2021/12/24 06:04:54;;;;;;;77.38;39.80;;;;;;;-0.86;100.00;99363.56;5156409;27;20447;-70
2021/12/24 06:07:22;;;;;;;75.35;39.55;;;;;;;-0.76;100.00;99358.94;5156260;27;20224;-72
2021/12/24 06:09:52;;;;;;;76.20;40.13;;;;;;;-0.78;100.00;99358.94;5155945;27;20087;-73
2021/12/24 06:12:20;;;;;;;76.25;38.83;;;;;;;-0.85;100.00;99346.09;5156092;27;20035;-72
2021/12/24 06:14:53;;;;;;;81.43;40.13;;;;;;;-0.84;100.00;99351.28;5155824;27;20114;-72
2021/12/24 06:17:23;;;;;;;78.53;40.00;;;;;;;-0.87;100.00;99346.13;5155064;27;20057;-71
2021/12/24 06:19:51;;;;;;;78.50;39.80;;;;;;;-0.87;100.00;99343.50;5156132;27;20433;-72
2021/12/24 06:22:19;;;;;;;73.95;38.95;;;;;;;-0.67;100.00;99328.09;5155974;27;20490;-72
2021/12/24 06:24:48;;;;;;;79.40;39.20;;;;;;;-0.66;100.00;99327.19;5155531;27;20055;-72
2021/12/24 06:27:17;;;;;;;77.82;39.92;;;;;;;-0.71;100.00;99320.34;5155989;27;20117;-72
2021/12/24 06:29:46;;;;;;;81.60;41.47;;;;;;;-0.75;100.00;99331.84;5155500;27;20042;-72
2021/12/24 06:32:14;;;;;;;77.78;39.88;;;;;;;-0.66;100.00;99319.34;5155718;27;20035;-72
2021/12/24 06:34:42;;;;;;;77.68;39.67;;;;;;;-0.69;100.00;99319.41;5155488;27;20061;-72
2021/12/24 06:37:11;;;;;;;72.28;39.15;;;;;;;-0.64;100.00;99319.28;5155462;27;20042;-71
2021/12/24 06:39:39;;;;;;;74.50;39.67;;;;;;;-0.70;100.00;99316.84;5155279;27;20039;-72
2021/12/24 06:42:08;;;;;;;79.80;41.65;;;;;;;-0.63;100.00;99324.47;5155430;27;20047;-72
2021/12/24 06:44:38;;;;;;;76.88;40.63;;;;;;;-0.63;100.00;99316.63;5155363;27;20050;-71
2021/12/24 06:47:06;;;;;;;77.00;40.35;;;;;;;-0.61;100.00;99327.91;5155518;27;20038;-71
2021/12/24 06:49:37;;;;;;;75.45;38.38;;;;;;;-0.42;100.00;99311.63;5155271;27;20475;-73
2021/12/24 06:52:06;;;;;;;79.22;37.85;;;;;;;-0.28;100.00;99285.88;5156284;27;20142;-72
2021/12/24 06:54:34;;;;;;;77.28;40.15;;;;;;;-0.37;100.00;99292.25;5155705;27;20041;-71
2021/12/24 06:57:03;;;;;;;78.10;39.67;;;;;;;-0.40;100.00;99299.31;5156420;27;20047;-70
2021/12/24 06:59:31;;;;;;;77.38;38.00;;;;;;;-0.34;100.00;99299.16;5155079;27;20042;-72
2021/12/24 07:02:01;;;;;;;78.93;40.33;;;;;;;-0.45;100.00;99293.38;5154998;27;20039;-72
2021/12/24 07:04:29;;;;;;;73.65;39.45;;;;;;;-0.43;100.00;99291.56;5155279;27;20178;-72
2021/12/24 07:06:57;;;;;;;76.13;38.38;;;;;;;-0.39;100.00;99295.81;5154695;27;20047;-72
2021/12/24 07:09:25;;;;;;;78.35;40.70;;;;;;;-0.35;100.00;99307.94;5155117;27;20045;-74
2021/12/24 07:11:54;;;;;;;79.30;40.28;;;;;;;-0.33;100.00;99306.09;5154424;27;20078;-73
2021/12/24 07:14:23;;;;;;;75.72;39.25;;;;;;;-0.28;100.00;99317.31;5155096;27;20051;-72
2021/12/24 07:16:52;;;;;;;76.07;39.20;;;;;;;-0.20;100.00;99322.28;5154787;27;20403;-73
2021/12/24 07:19:22;;;;;;;82.15;38.85;;;;;;;-0.10;100.00;99319.34;5154599;27;20042;-71
2021/12/24 07:21:50;;;;;;;78.78;40.53;;;;;;;-0.16;100.00;99322.16;5154200;27;20043;-71
2021/12/24 07:24:19;;;;;;;79.03;40.28;;;;;;;-0.14;100.00;99312.50;5154715;27;20065;-71
2021/12/24 07:26:47;;;;;;;75.25;39.35;;;;;;;-0.14;100.00;99312.50;5154645;27;20043;-72
2021/12/24 07:29:15;;;;;;;75.10;39.33;;;;;;;-0.08;100.00;99307.06;5155052;27;20479;-72
2021/12/24 07:31:44;;;;;;;78.60;40.28;;;;;;;-0.11;100.00;99308.91;5154701;27;20041;-70
2021/12/24 07:34:12;;;;;;;75.90;39.90;;;;;;;-0.08;100.00;99309.69;5154777;27;20142;-70
2021/12/24 07:36:44;;;;;;;79.88;40.33;;;;;;;-0.04;100.00;99316.53;5154483;27;20047;-70
2021/12/24 07:39:12;;;;;;;78.72;39.42;;;;;;;0.01;100.00;99315.53;5154960;27;20523;-69
2021/12/24 07:41:41;;;;;;;71.47;37.08;;;;;;;0.08;100.00;99322.28;5154328;27;20088;-70
2021/12/24 07:44:09;;;;;;;70.82;35.35;;;;;;;0.26;100.00;99311.19;5154699;27;20095;-69
2021/12/24 07:46:43;;;;;;;58.10;30.83;;;;;;;0.52;100.00;99290.19;5154105;27;20061;-69
2021/12/24 07:49:29;;;;;;;58.85;30.80;;;;;;;0.70;100.00;99267.69;5154790;27;20045;-69
2021/12/24 07:52:08;;;;;;;57.17;29.70;;;;;;;0.84;100.00;99261.94;5154398;27;20042;-69
2021/12/24 07:54:39;;;;;;;56.08;30.05;;;;;;;0.88;100.00;99253.06;5153775;27;20138;-69
2021/12/24 07:57:09;;;;;;;58.00;29.27;;;;;;;1.00;100.00;99270.97;5157463;27;20039;-69
2021/12/24 07:59:39;;;;;;;53.20;28.30;;;;;;;1.06;100.00;99257.63;5154266;27;20045;-75
2021/12/24 08:02:10;;;;;;;51.60;27.30;;;;;;;1.15;100.00;99252.00;5154578;27;20046;-70
2021/12/24 08:04:39;;;;;;;52.67;27.48;;;;;;;1.17;100.00;99269.50;5154367;27;20043;-74
2021/12/24 08:07:09;;;;;;;51.53;28.05;;;;;;;1.18;100.00;99260.69;5154854;27;20433;-69
2021/12/24 08:09:38;;;;;;;47.35;27.92;;;;;;;1.31;100.00;99259.31;5154618;27;20495;-68
2021/12/24 08:12:08;;;;;;;49.28;26.65;;;;;;;1.32;100.00;99245.25;5154327;27;20567;-69
2021/12/24 08:14:37;;;;;;;47.88;25.65;;;;;;;1.43;100.00;99245.69;5154631;27;20091;-68
2021/12/24 08:17:06;;;;;;;50.90;27.38;;;;;;;1.50;100.00;99241.91;5154277;27;20042;-69
2021/12/24 08:19:35;;;;;;;50.58;26.02;;;;;;;1.62;100.00;99241.41;5154516;27;20535;-68
2021/12/24 08:22:04;;;;;;;48.30;25.15;;;;;;;1.71;100.00;99229.69;5154202;27;20368;-68
2021/12/24 08:24:35;;;;;;;46.97;25.70;;;;;;;1.90;100.00;99235.06;5154200;27;20159;-68
2021/12/24 08:27:04;;;;;;;48.17;25.65;;;;;;;1.98;100.00;99233.81;5154132;27;20035;-67
2021/12/24 08:29:33;;;;;;;47.42;23.95;;;;;;;2.07;100.00;99231.72;5154337;27;20087;-67
2021/12/24 08:32:03;;;;;;;43.30;22.92;;;;;;;2.19;100.00;99223.31;5154796;27;20038;-67
2021/12/24 08:34:34;;;;;;;;;;;;;;;2.33;100.00;99222.75;5158517;27;20099;-66
2021/12/24 08:37:03;;;;;;;44.17;23.13;;;;;;;2.34;100.00;99240.25;5157772;27;19958;-69
2021/12/24 08:39:32;;;;;;;45.05;23.10;;;;;;;2.38;100.00;99233.91;5157703;27;20539;-69
2021/12/24 08:42:02;;;;;;;44.42;22.77;;;;;;;2.39;100.00;99219.84;5157634;27;20084;-69
2021/12/24 08:44:32;;;;;;;47.75;25.13;;;;;;;2.40;100.00;99229.44;5157834;27;20046;-69
2021/12/24 08:47:03;;;;;;;43.55;23.70;;;;;;;2.48;100.00;99222.06;5157602;27;20046;-72
2021/12/24 08:49:32;;;;;;;43.08;23.23;;;;;;;2.57;100.00;99227.78;5157587;27;20402;-71
2021/12/24 08:52:00;;;;;;;41.60;22.58;;;;;;;2.54;100.00;99224.44;5157586;27;20487;-75
2021/12/24 08:54:28;;;;;;;46.05;23.58;;;;;;;2.51;100.00;99214.91;5156993;27;20497;-73
2021/12/24 08:56:57;;;;;;;47.67;23.20;;;;;;;2.67;100.00;99203.69;5156870;27;20042;-73
2021/12/24 08:59:27;;;;;;;42.58;22.55;;;;;;;2.60;100.00;99213.63;5157605;27;20073;-72
2021/12/24 09:01:58;;;;;;;45.13;23.23;;;;;;;2.65;100.00;99193.22;5157444;27;20122;-71
2021/12/24 09:04:26;;;;;;;44.65;22.83;;;;;;;2.71;100.00;99207.91;5156580;27;20063;-73
2021/12/24 09:06:55;;;;;;;43.63;23.65;;;;;;;2.76;100.00;99196.22;5157112;27;20462;-72
2021/12/24 09:09:23;;;;;;;42.92;24.27;;;;;;;2.86;100.00;99200.16;5157555;27;20070;-72
2021/12/24 09:11:51;;;;;;;40.90;22.60;;;;;;;2.97;100.00;99209.34;5155645;27;20059;-72
2021/12/24 09:14:19;;;;;;;43.85;22.20;;;;;;;2.96;100.00;99207.63;5157474;27;20391;-72
2021/12/24 09:16:50;;;;;;;47.65;23.65;;;;;;;3.00;100.00;99206.59;5155816;27;20042;-73
2021/12/24 09:19:23;;;;;;;39.28;22.13;;;;;;;3.04;100.00;99208.16;5157208;27;20046;-72
2021/12/24 09:21:55;;;;;;;38.33;21.45;;;;;;;3.07;100.00;99219.38;5156778;27;20038;-72
2021/12/24 09:24:25;;;;;;;37.72;21.77;;;;;;;3.16;100.00;99215.47;5157116;27;20456;-73
2021/12/24 09:26:57;;;;;;;39.55;21.67;;;;;;;3.22;100.00;99209.94;5156939;27;20484;-71
2021/12/24 09:29:27;;;;;;;42.58;22.02;;;;;;;3.32;100.00;99192.75;5157248;27;20042;-72
2021/12/24 09:31:57;;;;;;;40.67;22.30;;;;;;;3.32;100.00;99189.28;5157044;27;20399;-72
2021/12/24 09:34:26;;;;;;;40.88;22.65;;;;;;;3.55;100.00;99188.16;5157260;27;20137;-71
2021/12/24 09:36:54;;;;;;;38.05;20.80;;;;;;;3.53;100.00;99182.13;5156558;27;20038;-71
2021/12/24 09:39:22;;;;;;;39.65;20.83;;;;;;;3.59;100.00;99181.81;5157054;27;20038;-71
2021/12/24 09:41:50;;;;;;;39.55;21.35;;;;;;;3.67;100.00;99184.94;5156842;27;20046;-73
2021/12/24 09:44:19;;;;;;;36.58;20.55;;;;;;;3.75;100.00;99177.47;5156473;27;20475;-70
2021/12/24 09:46:47;;;;;;;36.92;19.98;;;;;;;3.79;100.00;99170.28;5156409;27;20043;-76
2021/12/24 09:49:17;;;;;;;39.97;21.30;;;;;;;3.82;100.00;99162.22;5156759;27;20045;-72
2021/12/24 09:51:49;;;;;;;34.22;19.67;;;;;;;3.80;100.00;99154.38;5157026;27;20039;-72
2021/12/24 09:54:20;;;;;;;36.40;19.75;;;;;;;3.75;100.00;99151.09;5156845;27;20039;-72
2021/12/24 09:56:49;;;;;;;37.38;21.25;;;;;;;3.77;100.00;99138.72;5155135;27;20047;-76
2021/12/24 09:59:18;;;;;;;32.75;18.25;;;;;;;3.75;100.00;99140.56;5156396;27;20126;-72
2021/12/24 10:01:54;;;;;;;35.28;20.02;;;;;;;3.66;100.00;99141.88;5156019;27;20095;-72
2021/12/24 10:04:27;;;;;;;36.10;20.05;;;;;;;3.82;100.00;99128.78;5154962;27;20062;-71
2021/12/24 10:06:59;;;;;;;33.50;18.63;;;;;;;3.95;100.00;99135.13;5154904;27;20117;-72
2021/12/24 10:09:32;;;;;;;38.17;19.83;;;;;;;4.01;100.00;99126.91;5155104;27;20034;-72
2021/12/24 10:12:03;;;;;;;33.83;18.80;;;;;;;4.16;100.00;99116.50;5154855;27;20039;-72
2021/12/24 10:14:39;;;;;;;33.70;18.52;;;;;;;4.17;100.00;99126.13;5154797;27;20126;-72
2021/12/24 10:17:16;;;;;;;34.67;19.88;;;;;;;4.06;100.00;99131.13;5154337;27;20039;-72
2021/12/24 10:19:48;;;;;;;35.88;19.83;;;;;;;4.11;100.00;99132.56;5154413;27;20038;-72
2021/12/24 10:22:18;;;;;;;35.70;19.70;;;;;;;4.09;100.00;99123.88;5154871;27;20043;-72
2021/12/24 10:24:59;;;;;;;37.83;19.58;;;;;;;4.09;100.00;99118.59;5154491;27;20051;-71
2021/12/24 10:27:30;;;;;;;37.28;20.42;;;;;;;4.10;100.00;99119.47;5154599;27;20043;-71
2021/12/24 10:30:00;;;;;;;34.72;19.23;;;;;;;4.14;100.00;99121.00;5154645;27;20035;-72
2021/12/24 10:32:29;;;;;;;35.33;20.20;;;;;;;4.23;100.00;99128.44;5154483;27;20043;-71
2021/12/24 10:34:58;;;;;;;35.28;20.10;;;;;;;4.16;100.00;99119.16;5153939;27;20396;-72
2021/12/24 10:37:28;;;;;;;39.15;20.52;;;;;;;4.24;100.00;99127.50;5154418;27;20039;-71
2021/12/24 10:39:59;;;;;;;34.97;19.67;;;;;;;4.20;100.00;99121.53;5154063;27;20103;-72
2021/12/24 10:42:31;;;;;;;35.30;19.80;;;;;;;4.21;100.00;99127.66;5154574;27;20042;-72
2021/12/24 10:45:01;;;;;;;33.97;19.27;;;;;;;4.15;100.00;99128.84;5154104;27;20069;-71
2021/12/24 10:47:35;;;;;;;36.05;19.98;;;;;;;4.17;100.00;99115.56;5153993;27;20061;-70
2021/12/24 10:50:24;;;;;;;35.92;19.17;;;;;;;4.19;100.00;99130.41;5153648;27;20125;-71
2021/12/24 10:55:35;;;;;;;35.70;19.90;;;;;;;4.49;100.00;99122.66;5153294;27;20117;-71
2021/12/24 10:58:06;;;;;;;35.00;18.45;;;;;;;4.53;100.00;99118.03;5153752;27;20049;-72
2021/12/24 11:00:39;;;;;;;35.00;18.63;;;;;;;4.60;100.00;99124.72;5154049;27;20073;-71
2021/12/24 11:03:12;;;;;;;31.05;18.33;;;;;;;4.65;100.00;99120.06;5153571;27;20043;-72
2021/12/24 11:05:43;;;;;;;32.53;18.05;;;;;;;4.71;100.00;99124.13;5154032;27;20070;-72
2021/12/24 11:08:14;;;;;;;32.13;17.73;;;;;;;4.73;100.00;99122.25;5153702;27;20058;-72
2021/12/24 11:10:44;;;;;;;33.25;18.27;;;;;;;4.76;100.00;99124.75;5153932;27;20129;-71
2021/12/24 11:13:16;;;;;;;31.88;17.67;;;;;;;4.79;100.00;99121.94;5153524;27;20125;-71
2021/12/24 11:15:49;;;;;;;31.25;18.30;;;;;;;4.81;100.00;99109.47;5153735;27;20091;-71
2021/12/24 11:18:19;;;;;;;31.58;18.10;;;;;;;4.93;100.00;99116.75;5153470;27;20051;-71
2021/12/24 11:20:53;;;;;;;30.67;17.05;;;;;;;5.08;100.00;99126.47;5153474;27;20066;-72
2021/12/24 11:23:24;;;;;;;33.97;17.38;;;;;;;5.17;100.00;99119.81;5153461;27;20034;-71
2021/12/24 11:25:54;;;;;;;29.02;16.55;;;;;;;5.23;100.00;99124.78;5153765;27;20046;-71
2021/12/24 11:28:24;;;;;;;33.92;18.15;;;;;;;5.26;100.00;99124.59;5153804;27;20057;-71
2021/12/24 11:30:57;;;;;;;31.83;17.90;;;;;;;5.24;100.00;99126.47;5153439;27;20043;-71
2021/12/24 11:33:27;;;;;;;32.78;19.08;;;;;;;5.25;100.00;99119.38;5153492;27;20039;-72
2021/12/24 11:35:59;;;;;;;34.83;18.88;;;;;;;5.28;100.00;99116.56;5153249;27;20237;-74
2021/12/24 11:38:29;;;;;;;35.03;18.00;;;;;;;5.28;100.00;99106.00;5153345;27;20070;-70
2021/12/24 11:41:01;;;;;;;32.33;18.58;;;;;;;5.23;100.00;99097.47;5152872;27;20038;-72
2021/12/24 11:43:32;;;;;;;37.55;19.38;;;;;;;5.21;100.00;99100.22;5153571;27;20042;-71
2021/12/24 11:46:08;;;;;;;36.55;19.27;;;;;;;5.24;100.00;99099.19;5152143;27;20047;-71
2021/12/24 11:48:38;;;;;;;36.45;19.55;;;;;;;5.28;100.00;99084.84;5153572;27;20426;-72
2021/12/24 11:51:14;;;;;;;36.33;19.00;;;;;;;5.42;100.00;99087.56;5153165;27;20121;-70
2021/12/24 11:53:43;;;;;;;30.20;18.10;;;;;;;5.52;100.00;99090.53;5153307;27;20087;-70
2021/12/24 11:56:14;;;;;;;35.63;19.80;;;;;;;5.61;100.00;99080.25;5152813;27;20034;-71
2021/12/24 11:58:44;;;;;;;37.53;19.95;;;;;;;5.70;100.00;99077.09;5153343;27;20039;-71
2021/12/24 12:01:14;;;;;;;35.42;18.70;;;;;;;5.80;100.00;99071.25;5153141;27;20121;-70
2021/12/24 12:03:45;;;;;;;34.40;18.90;;;;;;;5.93;100.00;99072.25;5153369;27;20049;-71
2021/12/24 12:09:10;;;;;;;31.70;17.50;;;;;;;6.04;100.00;99061.84;5088792;27;20370;-70
2021/12/24 12:11:41;;;;;;;29.40;16.05;;;;;;;6.12;100.00;99062.25;5089262;28;20532;-70
2021/12/24 12:14:25;;;;;;;35.60;17.88;;;;;;;6.14;100.00;99059.50;5089108;28;20075;-72
2021/12/24 12:16:55;;;;;;;28.63;16.67;;;;;;;6.20;100.00;99070.59;5089222;28;20040;-69
2021/12/24 12:19:27;;;;;;;28.90;15.98;;;;;;;6.28;100.00;99072.75;5089345;28;20460;-71
2021/12/24 12:22:14;;;;;;;27.20;15.98;;;;;;;6.40;100.00;99071.16;5088954;28;20097;-71
2021/12/24 12:27:35;;;;;;;30.90;15.77;;;;;;;6.37;100.00;99071.31;5088867;28;20040;-71
2021/12/24 12:30:23;;;;;;;28.13;15.48;;;;;;;6.47;100.00;99077.78;5089086;28;20123;-71
2021/12/24 12:32:53;;;;;;;25.48;14.27;;;;;;;6.47;100.00;99072.47;5091926;28;20052;-71
2021/12/24 12:35:35;;;;;;;26.92;15.48;;;;;;;6.44;100.00;99072.66;5088848;28;20084;-72
2021/12/24 12:38:03;;;;;;;24.83;13.98;;;;;;;6.51;100.00;99074.84;5088619;28;20409;-71
2021/12/24 12:40:35;;;;;;;28.27;15.20;;;;;;;6.60;100.00;99078.72;5088525;28;20052;-71
2021/12/24 12:43:14;;;;;;;24.98;14.55;;;;;;;6.57;100.00;99077.13;5089941;28;20409;-72
2021/12/24 12:45:55;;;;;;;;;;;;;;;6.48;100.00;99079.47;5089210;28;20075;-71